PCF weather

Potchefstroom Airport
Potchefstroom, North-West, South Africa

Public forecast

Using degrees Celsius for public forecast. Weather courtesy of forecast.io.

Current aviation weather report (METAR) for Potchefstroom Airport

Report is more than 6 hours old.

Retrieved 2013/07/12 07:00 UTC (7 years ago):

FAPS 120700Z AUTO 08002KT //// // ////// 11/// Q1032

Closest aviation forecast (TAF) to Potchefstroom Airport

Closest forecast is Lanseria Airport, 63.2 nm (117.1 km) NE. Retrieved 2020/05/26 06:41 UTC (0 seconds ago):

TAF FALA 260400Z 2606/2706 19013KT CAVOK TX18/2612Z TN04/2705Z BECMG 2610/2612 27010KT BECMG 2616/2618 18017KT